createdAt,value
2019-02-20T07:36:11.567Z,53.06
2019-02-20T07:38:43.140Z,53.39
2019-02-20T07:41:14.503Z,50.92
2019-02-20T07:43:44.907Z,50.34
2019-02-20T07:46:15.292Z,49.73
2019-02-20T07:48:45.721Z,49.25
2019-02-20T07:51:16.272Z,48.66
2019-02-20T07:53:46.607Z,48.21
2019-02-20T07:56:17.155Z,47.93
2019-02-20T07:58:47.684Z,47.61
2019-02-20T08:03:29.765Z,32.66
2019-02-20T08:06:03.339Z,44.80
2019-02-20T08:08:33.885Z,52.35
2019-02-20T08:11:05.850Z,57.11
2019-02-20T08:13:39.313Z,59.56
2019-02-20T08:16:11.321Z,60.75
2019-02-20T08:18:44.037Z,61.22
2019-02-20T08:21:15.674Z,61.83
2019-02-20T08:23:46.187Z,62.37
2019-02-20T08:26:16.602Z,62.96
2019-02-20T08:28:47.061Z,63.40
2019-02-20T08:31:17.435Z,63.88
2019-02-20T08:33:48.017Z,63.91
2019-02-20T08:36:18.369Z,64.35
2019-02-20T08:38:48.947Z,64.70
2019-02-20T08:41:19.447Z,64.91
2019-02-20T08:43:49.940Z,64.13
2019-02-20T08:46:20.361Z,63.91
2019-02-20T08:48:50.891Z,64.66
2019-02-20T08:51:21.377Z,65.01
2019-02-20T08:53:51.843Z,65.12
2019-02-20T08:56:22.269Z,65.50
2019-02-20T08:58:53.216Z,65.80
2019-02-20T09:01:24.009Z,64.74
2019-02-20T09:03:54.473Z,64.38
2019-02-20T09:06:27.907Z,63.62
2019-02-20T09:08:58.420Z,62.97
2019-02-20T09:11:28.755Z,61.60
2019-02-20T09:13:59.122Z,63.08
2019-02-20T09:16:29.617Z,60.94
2019-02-20T09:19:00.003Z,60.38
2019-02-20T09:21:30.357Z,60.67
2019-02-20T09:24:00.720Z,60.82
2019-02-20T09:26:31.073Z,60.46
2019-02-20T09:29:01.526Z,59.59
2019-02-20T09:31:32.009Z,58.90
2019-02-20T09:34:02.667Z,59.07
2019-02-20T09:36:32.990Z,58.78
2019-02-20T09:39:22.960Z,58.33
2019-02-20T09:41:53.365Z,58.72
2019-02-20T09:44:24.181Z,59.34
2019-02-20T09:46:56.058Z,58.99
2019-02-20T09:49:26.416Z,59.93
2019-02-20T09:51:56.829Z,60.21
2019-02-20T09:54:27.351Z,59.02
2019-02-20T09:56:57.782Z,57.93
2019-02-20T09:59:28.165Z,57.96
2019-02-20T10:01:58.496Z,57.78
2019-02-20T10:04:28.948Z,57.11
2019-02-20T10:06:59.337Z,57.06
2019-02-20T10:09:29.713Z,57.00
2019-02-20T10:12:00.087Z,56.43
2019-02-20T10:14:30.628Z,55.97
2019-02-20T10:17:00.967Z,56.76
2019-02-20T10:19:31.340Z,56.87
2019-02-20T10:22:01.742Z,56.69
2019-02-20T10:24:32.191Z,56.24
2019-02-20T10:27:02.678Z,56.57
2019-02-20T10:29:33.171Z,55.00
2019-02-20T10:32:03.882Z,55.29
2019-02-20T10:34:34.884Z,55.77
2019-02-20T10:37:05.386Z,55.11
2019-02-20T10:39:35.930Z,55.19
2019-02-20T10:42:06.341Z,54.57
2019-02-20T10:44:36.801Z,55.01
2019-02-20T10:47:08.203Z,54.76
2019-02-20T10:49:38.860Z,55.52
2019-02-20T10:52:09.223Z,53.79
2019-02-20T10:54:39.623Z,54.72
2019-02-20T10:57:10.056Z,54.24
2019-02-20T10:59:40.514Z,54.67
2019-02-20T11:02:10.933Z,54.13
2019-02-20T11:04:41.384Z,54.74
2019-02-20T11:07:11.740Z,54.61
2019-02-20T11:09:42.201Z,54.91
2019-02-20T11:12:13.635Z,54.88
2019-02-20T11:14:44.083Z,55.20
2019-02-20T11:17:14.508Z,54.32
2019-02-20T11:19:44.892Z,54.62
2019-02-20T11:22:15.427Z,54.13
2019-02-20T11:24:45.809Z,55.14
2019-02-20T11:27:16.254Z,54.72
2019-02-20T11:29:46.633Z,54.34
2019-02-20T11:32:16.980Z,54.51
2019-02-20T11:34:47.374Z,55.10
2019-02-20T11:37:17.791Z,55.36
2019-02-20T11:39:48.168Z,55.67
2019-02-20T11:42:18.507Z,55.54
2019-02-20T11:44:48.919Z,55.70
2019-02-20T11:47:19.323Z,55.20
2019-02-20T11:49:49.702Z,54.32
2019-02-20T11:52:20.050Z,54.32
2019-02-20T11:54:50.430Z,54.36
2019-02-20T11:57:20.854Z,53.76
2019-02-20T11:59:51.315Z,54.38
2019-02-20T12:02:21.653Z,53.76
2019-02-20T12:04:52.038Z,55.27
2019-02-20T12:07:22.374Z,53.48
2019-02-20T12:09:54.451Z,53.31
2019-02-20T12:12:25.978Z,53.91
2019-02-20T12:14:56.358Z,53.28
2019-02-20T12:17:26.700Z,53.82
2019-02-20T12:19:57.087Z,54.06
2019-02-20T12:22:27.966Z,54.67
2019-02-20T12:24:59.355Z,54.26
2019-02-20T12:27:29.763Z,54.25
2019-02-20T12:30:00.269Z,53.41
2019-02-20T12:32:31.032Z,53.51
2019-02-20T12:35:02.494Z,53.77
2019-02-20T12:37:32.907Z,54.12
2019-02-20T12:40:05.057Z,53.91
2019-02-20T12:42:35.665Z,54.03
2019-02-20T12:45:07.588Z,53.95
2019-02-20T12:47:37.935Z,53.81
2019-02-20T12:50:11.708Z,53.85
2019-02-20T12:52:42.062Z,53.49
2019-02-20T12:55:12.513Z,53.25
2019-02-20T12:57:43.008Z,53.91
2019-02-20T13:00:18.266Z,55.03
2019-02-20T13:02:48.666Z,55.19
2019-02-20T13:05:19.268Z,55.59
2019-02-20T13:07:49.681Z,55.54
2019-02-20T13:10:20.073Z,55.18
2019-02-20T13:12:50.588Z,55.50
2019-02-20T13:15:21.100Z,55.62
2019-02-20T13:17:51.571Z,55.26
2019-02-20T13:20:22.289Z,55.61
2019-02-20T13:23:02.698Z,54.83
2019-02-20T13:25:35.692Z,54.59
2019-02-20T13:28:06.021Z,53.86
2019-02-20T13:30:36.485Z,54.41
2019-02-20T13:33:07.187Z,52.98
2019-02-20T13:35:37.644Z,52.81
2019-02-20T13:38:08.214Z,51.88
2019-02-20T13:40:38.961Z,52.47
2019-02-20T13:43:09.313Z,52.24
2019-02-20T13:45:39.703Z,52.60
2019-02-20T13:48:10.186Z,53.44
2019-02-20T13:50:40.639Z,54.02
2019-02-20T13:53:11.236Z,54.20
2019-02-20T13:55:41.664Z,53.97
2019-02-20T13:58:12.086Z,54.79
2019-02-20T14:00:42.455Z,55.20
2019-02-20T14:03:13.287Z,55.48
2019-02-20T14:05:43.834Z,55.79
2019-02-20T14:08:14.746Z,55.79
2019-02-20T14:10:45.209Z,55.43
2019-02-20T14:13:15.619Z,55.12
2019-02-20T14:15:46.341Z,55.01
2019-02-20T14:18:17.012Z,54.61
2019-02-20T14:20:47.383Z,54.82
2019-02-20T14:23:17.995Z,54.28
2019-02-20T14:25:48.433Z,54.62
2019-02-20T14:28:18.832Z,54.64
2019-02-20T14:30:49.524Z,54.72
2019-02-20T14:33:19.873Z,54.32
2019-02-20T14:35:50.657Z,54.52
2019-02-20T14:38:21.059Z,54.52
2019-02-20T14:40:51.436Z,54.14
2019-02-20T14:43:22.923Z,53.82
2019-02-20T14:45:53.355Z,54.06
2019-02-20T14:48:23.765Z,54.45
2019-02-20T14:50:54.224Z,54.46
2019-02-20T14:53:24.561Z,54.62
2019-02-20T14:55:54.949Z,54.47
2019-02-20T14:58:27.385Z,54.70
2019-02-20T15:00:57.889Z,55.14
2019-02-20T15:03:28.232Z,55.25
2019-02-20T15:05:58.885Z,56.07
2019-02-20T15:08:29.286Z,55.99
2019-02-20T15:10:59.745Z,55.84
2019-02-20T15:13:30.145Z,56.22
2019-02-20T15:16:00.598Z,56.47
2019-02-20T15:18:31.009Z,56.84
2019-02-20T15:21:02.683Z,56.88
2019-02-20T15:23:33.095Z,56.93
2019-02-20T15:26:03.750Z,56.48
2019-02-20T15:28:34.297Z,56.59
2019-02-20T15:31:04.752Z,56.29
2019-02-20T15:33:35.455Z,57.19
2019-02-20T15:36:05.841Z,57.42
2019-02-20T15:38:36.260Z,57.59
2019-02-20T15:41:06.635Z,57.77
2019-02-20T15:43:37.060Z,58.21
2019-02-20T15:46:07.443Z,58.55
2019-02-20T15:48:37.858Z,58.36
2019-02-20T15:51:08.310Z,58.86
2019-02-20T15:53:38.660Z,59.53
2019-02-20T15:56:09.041Z,59.51
2019-02-20T15:58:39.545Z,59.93
2019-02-20T16:01:11.554Z,60.00
2019-02-20T16:03:42.240Z,60.40
2019-02-20T16:06:12.622Z,60.72
2019-02-20T16:08:43.363Z,60.93
2019-02-20T16:11:13.763Z,61.44
2019-02-20T16:13:45.221Z,61.38
2019-02-20T16:16:15.674Z,61.23
2019-02-20T16:18:46.088Z,61.45
2019-02-20T16:21:16.528Z,61.29
2019-02-20T16:24:20.955Z,61.38
2019-02-20T16:26:51.910Z,61.13
2019-02-20T16:29:23.340Z,59.25
2019-02-20T16:31:53.878Z,58.75
2019-02-20T16:34:25.533Z,58.46
2019-02-20T16:36:58.009Z,57.31
2019-02-20T16:39:28.311Z,56.42
2019-02-20T16:41:58.734Z,56.62
2019-02-20T16:44:29.517Z,56.32
2019-02-20T16:46:59.975Z,56.15
2019-02-20T16:49:30.332Z,56.13
2019-02-20T16:52:00.745Z,56.21
2019-02-20T16:54:31.175Z,55.76
2019-02-20T16:57:01.653Z,55.86
2019-02-20T16:59:32.083Z,55.58
2019-02-20T17:02:02.540Z,55.68
2019-02-20T17:04:32.967Z,56.06
2019-02-20T17:07:16.305Z,55.60
2019-02-20T17:09:52.088Z,55.85
2019-02-20T17:12:22.798Z,55.82
2019-02-20T17:14:53.407Z,55.83
2019-02-20T17:17:25.265Z,56.12
2019-02-20T17:19:55.748Z,55.81
2019-02-20T17:22:26.465Z,56.22
2019-02-20T17:24:56.890Z,56.51
2019-02-20T17:27:27.567Z,56.58
2019-02-20T17:29:58.006Z,57.48
2019-02-20T17:32:28.396Z,57.22
2019-02-20T17:34:58.818Z,57.85
2019-02-20T17:37:29.384Z,58.10
2019-02-20T17:39:59.809Z,58.42
2019-02-20T17:42:30.326Z,58.23
2019-02-20T17:45:00.752Z,59.13
2019-02-20T17:47:31.270Z,58.82
2019-02-20T17:50:02.101Z,58.18
2019-02-20T17:52:32.632Z,58.28
2019-02-20T17:55:03.176Z,58.92
2019-02-20T17:57:33.780Z,58.83
2019-02-20T18:00:05.501Z,59.13
2019-02-20T18:02:36.658Z,58.83
2019-02-20T18:05:07.942Z,59.36
2019-02-20T18:07:38.496Z,59.22
2019-02-20T18:10:10.240Z,59.72
2019-02-20T18:12:40.854Z,59.69
2019-02-20T18:15:12.981Z,60.03
2019-02-20T18:17:43.443Z,60.17
2019-02-20T18:20:13.854Z,59.73
2019-02-20T18:22:44.643Z,59.85
2019-02-20T18:25:15.113Z,59.91
2019-02-20T18:27:45.654Z,60.22
2019-02-20T18:30:16.521Z,60.58
2019-02-20T18:32:47.041Z,60.48
2019-02-20T18:35:19.108Z,60.51
2019-02-20T18:37:49.726Z,60.90
2019-02-20T18:40:20.145Z,61.17
2019-02-20T18:42:50.718Z,61.33
2019-02-20T18:45:21.246Z,61.18
2019-02-20T18:47:51.682Z,61.34
2019-02-20T18:50:22.121Z,60.95
2019-02-20T18:52:52.505Z,61.30
2019-02-20T18:55:23.188Z,61.21
2019-02-20T18:57:53.642Z,61.15
2019-02-20T19:00:24.090Z,61.41
2019-02-20T19:02:54.695Z,61.45
2019-02-20T19:05:25.107Z,61.35
2019-02-20T19:07:55.688Z,61.33
2019-02-20T19:10:29.498Z,61.69
2019-02-20T19:13:27.581Z,61.48
2019-02-20T19:16:18.574Z,61.40
2019-02-20T19:19:02.589Z,61.62
2019-02-20T19:21:55.853Z,62.63
2019-02-20T19:24:35.182Z,62.06
2019-02-20T19:27:33.209Z,62.67
2019-02-20T19:30:22.056Z,62.37
2019-02-20T19:33:13.717Z,62.26
2019-02-20T19:36:15.618Z,62.46
2019-02-20T19:39:02.691Z,62.61
2019-02-20T19:41:47.726Z,63.01
2019-02-20T19:44:24.126Z,62.77
2019-02-20T19:47:19.308Z,62.88
2019-02-20T19:50:02.011Z,62.85
2019-02-20T19:52:49.867Z,63.57
2019-02-20T19:55:55.830Z,63.06
2019-02-20T19:58:41.202Z,63.94
2019-02-20T20:01:23.980Z,63.93
2019-02-20T20:04:03.549Z,63.54
2019-02-20T20:06:45.858Z,63.73
2019-02-20T20:09:31.515Z,64.57
2019-02-20T20:12:14.092Z,64.20
2019-02-20T20:15:07.395Z,64.14
2019-02-20T20:17:51.859Z,64.27
2019-02-20T20:20:28.405Z,64.31
2019-02-20T20:23:10.941Z,64.14
2019-02-20T20:26:13.703Z,65.40
2019-02-20T20:29:16.209Z,64.10
2019-02-20T20:31:58.776Z,64.43
2019-02-20T20:34:53.387Z,64.37
2019-02-20T20:37:30.223Z,64.35
2019-02-20T20:40:13.108Z,63.98
2019-02-20T20:42:52.708Z,64.59
2019-02-20T20:45:53.944Z,65.16
2019-02-20T20:48:44.370Z,65.09
2019-02-20T20:51:34.350Z,64.81
2019-02-20T20:54:29.071Z,65.09
2019-02-20T20:59:51.509Z,65.28
2019-02-20T21:02:25.197Z,65.34
2019-02-20T21:05:01.406Z,65.62
2019-02-20T21:07:41.703Z,65.44
2019-02-20T21:10:33.509Z,65.30
2019-02-20T21:13:28.559Z,65.00
2019-02-20T21:16:17.308Z,65.31
2019-02-20T21:19:00.947Z,65.29
2019-02-20T21:21:59.140Z,65.65
2019-02-20T21:24:35.557Z,65.61
2019-02-20T21:27:28.889Z,65.61
2019-02-20T21:30:02.595Z,65.90
2019-02-20T21:33:09.774Z,66.38
2019-02-20T21:36:11.858Z,66.40
2019-02-20T21:39:13.107Z,66.31
2019-02-20T21:42:04.511Z,66.35
2019-02-20T21:44:46.399Z,66.56
2019-02-20T21:47:31.917Z,66.87
2019-02-20T21:50:22.463Z,66.86
2019-02-20T21:53:12.489Z,66.42
2019-02-20T21:56:06.988Z,66.48
2019-02-20T21:58:43.277Z,66.70
2019-02-20T22:01:38.725Z,66.71
2019-02-20T22:04:33.834Z,66.75
2019-02-20T22:07:07.572Z,67.09
2019-02-20T22:09:57.374Z,67.15
2019-02-20T22:12:23.025Z,67.54
2019-02-20T22:14:59.161Z,67.25
2019-02-20T22:17:58.359Z,67.41
2019-02-20T22:20:43.781Z,67.36
2019-02-20T22:23:26.208Z,67.42
2019-02-20T22:26:10.185Z,67.38
2019-02-20T22:28:58.928Z,67.66
2019-02-20T22:32:00.607Z,67.46
2019-02-20T22:35:37.868Z,67.55
2019-02-20T22:38:38.979Z,67.43
2019-02-20T22:41:32.289Z,67.91
2019-02-20T22:44:31.418Z,67.87
2019-02-20T22:47:20.360Z,68.23
2019-02-20T22:50:29.230Z,68.12
2019-02-20T22:53:26.327Z,68.00
2019-02-20T22:56:02.697Z,68.16
2019-02-20T22:58:57.769Z,68.16
2019-02-20T23:01:34.415Z,68.35
2019-02-20T23:04:13.912Z,68.17
2019-02-20T23:06:47.617Z,68.32
2019-02-20T23:09:52.996Z,68.04
2019-02-20T23:12:49.131Z,68.14
2019-02-20T23:15:19.650Z,68.23
2019-02-20T23:17:50.087Z,67.95
2019-02-20T23:20:20.454Z,67.97
2019-02-20T23:22:50.889Z,68.31
2019-02-20T23:25:21.257Z,68.38
2019-02-20T23:27:51.755Z,68.24
2019-02-20T23:30:22.279Z,68.37
2019-02-20T23:32:52.717Z,68.36
2019-02-20T23:35:23.226Z,68.36
2019-02-20T23:37:53.772Z,68.21
2019-02-20T23:40:24.437Z,68.20
2019-02-20T23:42:54.767Z,68.51
2019-02-20T23:45:25.234Z,68.58
2019-02-20T23:47:55.635Z,68.60
2019-02-20T23:50:26.084Z,68.88
2019-02-20T23:52:56.622Z,68.61
2019-02-20T23:55:26.972Z,68.72
2019-02-20T23:57:57.505Z,68.87
